createdAt,value
2017-02-20T00:00:11.078Z,0
2017-02-20T00:01:20.155Z,0
2017-02-20T00:02:29.747Z,0
2017-02-20T00:03:39.145Z,0
2017-02-20T00:04:48.538Z,0
2017-02-20T00:05:57.527Z,0
2017-02-20T00:07:06.513Z,0
2017-02-20T00:08:15.677Z,0
2017-02-20T00:09:24.667Z,0
2017-02-20T00:10:33.646Z,0
2017-02-20T00:11:42.626Z,0
2017-02-20T00:12:51.657Z,0
2017-02-20T00:14:00.695Z,0
2017-02-20T00:15:09.893Z,0
2017-02-20T00:16:18.992Z,0
2017-02-20T00:17:28.015Z,0
2017-02-20T00:18:37.000Z,0
2017-02-20T00:19:45.977Z,0
2017-02-20T00:20:55.057Z,0
2017-02-20T00:22:04.062Z,0
2017-02-20T00:23:13.041Z,0
2017-02-20T00:24:22.031Z,0
2017-02-20T00:25:31.152Z,0
2017-02-20T00:26:40.407Z,0
2017-02-20T00:27:49.386Z,0
2017-02-20T00:28:58.428Z,0
2017-02-20T00:30:07.515Z,0
2017-02-20T00:31:16.918Z,0
2017-02-20T00:32:26.121Z,0
2017-02-20T00:33:35.113Z,0
2017-02-20T00:34:44.508Z,0
2017-02-20T00:35:53.994Z,0
2017-02-20T00:37:03.006Z,0
2017-02-20T00:38:12.099Z,0
2017-02-20T00:39:21.213Z,0
2017-02-20T00:40:30.603Z,0
2017-02-20T00:41:39.605Z,0
2017-02-20T00:42:48.787Z,0
2017-02-20T00:43:57.907Z,0
2017-02-20T00:45:07.019Z,0
2017-02-20T00:46:16.174Z,0
2017-02-20T00:47:25.160Z,0
2017-02-20T00:48:34.144Z,0
2017-02-20T00:49:43.153Z,0
2017-02-20T00:50:52.161Z,0
2017-02-20T00:52:01.637Z,0
2017-02-20T00:53:10.635Z,0
2017-02-20T00:54:19.616Z,0
2017-02-20T00:55:28.629Z,0
2017-02-20T00:56:37.632Z,0
2017-02-20T00:57:46.604Z,0
2017-02-20T00:58:55.592Z,0
2017-02-20T01:00:04.575Z,0
2017-02-20T01:01:13.595Z,0
2017-02-20T01:02:22.595Z,0
2017-02-20T01:03:31.601Z,0
2017-02-20T01:04:40.602Z,0
2017-02-20T01:05:49.588Z,0
2017-02-20T01:06:58.567Z,0
2017-02-20T01:08:07.984Z,0
2017-02-20T01:09:17.379Z,0
2017-02-20T01:10:26.470Z,0
2017-02-20T01:11:35.561Z,0
2017-02-20T01:12:44.550Z,0
2017-02-20T01:13:53.530Z,0
2017-02-20T01:15:02.618Z,0
2017-02-20T01:16:11.717Z,0
2017-02-20T01:17:20.727Z,0
2017-02-20T01:18:30.110Z,0
2017-02-20T01:19:39.092Z,0
2017-02-20T01:20:48.163Z,0
2017-02-20T01:21:57.159Z,0
2017-02-20T01:23:06.233Z,0
2017-02-20T01:24:15.212Z,0
2017-02-20T01:25:24.208Z,0
2017-02-20T01:26:33.187Z,0
2017-02-20T01:27:42.186Z,0
2017-02-20T01:28:51.173Z,0
2017-02-20T01:30:00.975Z,0
2017-02-20T01:31:09.972Z,0
2017-02-20T01:32:18.986Z,0
2017-02-20T01:33:28.386Z,0
2017-02-20T01:34:37.371Z,0
2017-02-20T01:35:46.370Z,0
2017-02-20T01:36:55.355Z,0
2017-02-20T01:38:04.335Z,0
2017-02-20T01:39:13.331Z,0
2017-02-20T01:40:22.328Z,0
2017-02-20T01:41:31.399Z,0
2017-02-20T01:42:40.387Z,0
2017-02-20T01:43:49.380Z,0
2017-02-20T01:44:58.359Z,0
2017-02-20T01:46:07.354Z,0
2017-02-20T01:47:16.421Z,0
2017-02-20T01:48:25.416Z,0
2017-02-20T01:49:34.419Z,0
2017-02-20T01:50:43.396Z,0
2017-02-20T01:51:52.479Z,0
2017-02-20T01:53:01.506Z,0
2017-02-20T01:54:10.518Z,0
2017-02-20T01:55:19.503Z,0
2017-02-20T01:56:28.500Z,0
2017-02-20T01:57:37.566Z,0
2017-02-20T01:58:46.554Z,0
2017-02-20T01:59:55.547Z,0
2017-02-20T02:01:04.536Z,0
2017-02-20T02:02:13.527Z,0
2017-02-20T02:03:22.521Z,0
2017-02-20T02:04:31.607Z,0
2017-02-20T02:05:40.596Z,0
2017-02-20T02:06:49.581Z,0
2017-02-20T02:07:58.660Z,0
2017-02-20T02:09:07.651Z,0
2017-02-20T02:10:16.638Z,0
2017-02-20T02:11:25.636Z,0
2017-02-20T02:12:34.714Z,0
2017-02-20T02:13:43.782Z,0
2017-02-20T02:14:52.762Z,0
2017-02-20T02:16:01.748Z,0
2017-02-20T02:17:10.734Z,0
2017-02-20T02:18:19.729Z,0
2017-02-20T02:19:28.876Z,0
2017-02-20T02:20:37.866Z,0
2017-02-20T02:21:46.854Z,0
2017-02-20T02:22:55.839Z,0
2017-02-20T02:24:05.725Z,0
2017-02-20T02:25:14.702Z,0
2017-02-20T02:26:23.797Z,0
2017-02-20T02:27:32.788Z,0
2017-02-20T02:28:41.763Z,0
2017-02-20T02:29:50.759Z,0
2017-02-20T02:30:59.779Z,0
2017-02-20T02:32:08.758Z,0
2017-02-20T02:33:17.755Z,0
2017-02-20T02:34:26.763Z,0
2017-02-20T02:35:35.759Z,0
2017-02-20T02:36:44.842Z,0
2017-02-20T02:37:53.840Z,0
2017-02-20T02:39:02.822Z,0
2017-02-20T02:40:11.806Z,0
2017-02-20T02:41:20.811Z,0
2017-02-20T02:42:30.478Z,0
2017-02-20T02:43:39.463Z,0
2017-02-20T02:44:48.448Z,0
2017-02-20T02:45:58.190Z,0
2017-02-20T02:47:07.193Z,0
2017-02-20T02:48:16.589Z,0
2017-02-20T02:49:25.677Z,0
2017-02-20T02:50:34.667Z,0
2017-02-20T02:51:43.664Z,0
2017-02-20T02:52:53.064Z,0
2017-02-20T02:54:02.464Z,0
2017-02-20T02:55:11.455Z,0
2017-02-20T02:56:21.587Z,0
2017-02-20T02:57:30.570Z,0
2017-02-20T02:58:39.650Z,0
2017-02-20T02:59:48.657Z,0
2017-02-20T03:00:57.657Z,0
2017-02-20T03:02:06.661Z,0
2017-02-20T03:03:15.744Z,0
2017-02-20T03:04:24.767Z,0
2017-02-20T03:05:33.859Z,0
2017-02-20T03:06:42.847Z,0
2017-02-20T03:07:51.833Z,0
2017-02-20T03:09:00.825Z,0
2017-02-20T03:10:09.893Z,0
2017-02-20T03:11:18.888Z,0
2017-02-20T03:12:27.891Z,0
2017-02-20T03:13:36.883Z,0
2017-02-20T03:14:45.862Z,0
2017-02-20T03:15:54.887Z,0
2017-02-20T03:17:04.272Z,0
2017-02-20T03:18:13.256Z,0
2017-02-20T03:19:22.259Z,0
2017-02-20T03:20:31.327Z,0
2017-02-20T03:21:40.321Z,0
2017-02-20T03:22:49.294Z,0
2017-02-20T03:23:58.286Z,0
2017-02-20T03:25:07.278Z,0
2017-02-20T03:26:16.265Z,0
2017-02-20T03:27:25.253Z,0
2017-02-20T03:28:34.267Z,0
2017-02-20T03:29:43.251Z,0
2017-02-20T03:30:52.242Z,0
2017-02-20T03:32:01.236Z,0
2017-02-20T03:33:10.240Z,0
2017-02-20T03:34:19.311Z,0
2017-02-20T03:35:28.315Z,0
2017-02-20T03:36:37.409Z,0
2017-02-20T03:37:46.409Z,0
2017-02-20T03:38:55.402Z,0
2017-02-20T03:40:04.389Z,0
2017-02-20T03:41:13.387Z,0
2017-02-20T03:42:22.369Z,0
2017-02-20T03:43:31.367Z,0
2017-02-20T03:44:40.346Z,0
2017-02-20T03:45:49.368Z,0
2017-02-20T03:46:58.456Z,0
2017-02-20T03:48:07.452Z,0
2017-02-20T03:49:16.433Z,0
2017-02-20T03:50:25.429Z,0
2017-02-20T03:51:34.431Z,0
2017-02-20T03:52:43.448Z,0
2017-02-20T03:53:52.845Z,0
2017-02-20T03:55:01.915Z,0
2017-02-20T03:56:10.905Z,0
2017-02-20T03:57:19.975Z,0
2017-02-20T03:58:28.964Z,0
2017-02-20T03:59:37.939Z,0
2017-02-20T04:00:46.919Z,0
2017-02-20T04:01:55.908Z,0
2017-02-20T04:03:04.990Z,0
2017-02-20T04:04:13.966Z,0
2017-02-20T04:05:22.973Z,0
2017-02-20T04:06:31.965Z,0
2017-02-20T04:07:40.946Z,0
2017-02-20T04:08:49.937Z,0
2017-02-20T04:09:59.100Z,0
2017-02-20T04:11:08.497Z,0
2017-02-20T04:12:17.472Z,0
2017-02-20T04:13:26.474Z,0
2017-02-20T04:14:35.502Z,0
2017-02-20T04:15:44.577Z,0
2017-02-20T04:16:53.554Z,0
2017-02-20T04:18:02.536Z,0
2017-02-20T04:19:11.542Z,0
2017-02-20T04:20:20.520Z,0
2017-02-20T04:21:29.513Z,0
2017-02-20T04:22:38.503Z,0
2017-02-20T04:23:47.596Z,0
2017-02-20T04:24:56.993Z,0
2017-02-20T04:26:06.014Z,0
2017-02-20T04:27:15.180Z,0
2017-02-20T04:28:24.251Z,0
2017-02-20T04:29:33.249Z,0
2017-02-20T04:30:42.655Z,0
2017-02-20T04:31:51.639Z,0
2017-02-20T04:33:00.637Z,0
2017-02-20T04:34:09.626Z,0
2017-02-20T04:35:18.625Z,0
2017-02-20T04:36:27.622Z,0
2017-02-20T04:37:36.627Z,0
2017-02-20T04:38:46.031Z,0
2017-02-20T04:39:55.018Z,0
2017-02-20T04:41:04.441Z,0
2017-02-20T04:42:13.826Z,0
2017-02-20T04:43:22.815Z,0
2017-02-20T04:44:31.795Z,0
2017-02-20T04:45:40.772Z,0
2017-02-20T04:46:49.773Z,0
2017-02-20T04:47:58.767Z,0
2017-02-20T04:49:08.168Z,0
2017-02-20T04:50:17.160Z,0
2017-02-20T04:51:26.162Z,0
2017-02-20T04:52:35.159Z,0
2017-02-20T04:53:44.136Z,0
2017-02-20T04:54:53.111Z,0
2017-02-20T04:56:02.517Z,0
2017-02-20T04:57:11.498Z,0
2017-02-20T04:58:20.517Z,0
2017-02-20T04:59:29.508Z,0
2017-02-20T05:00:38.496Z,0
2017-02-20T05:01:47.482Z,0
2017-02-20T05:02:56.488Z,0
2017-02-20T05:04:05.901Z,0
2017-02-20T05:05:14.884Z,0
2017-02-20T05:06:23.884Z,0
2017-02-20T05:07:32.880Z,0
2017-02-20T05:08:42.358Z,0
2017-02-20T05:09:51.363Z,0
2017-02-20T05:11:00.351Z,0
2017-02-20T05:12:09.766Z,0
2017-02-20T05:13:18.768Z,0
2017-02-20T05:14:27.762Z,0
2017-02-20T05:15:36.746Z,0
2017-02-20T05:16:45.735Z,0
2017-02-20T05:17:54.724Z,0
2017-02-20T05:19:04.146Z,0
2017-02-20T05:20:13.144Z,0
2017-02-20T05:21:22.135Z,0
2017-02-20T05:22:31.217Z,0
2017-02-20T05:23:40.368Z,0
2017-02-20T05:24:49.440Z,0
2017-02-20T05:25:58.433Z,0
2017-02-20T05:27:07.496Z,0
2017-02-20T05:28:16.475Z,0
2017-02-20T05:29:25.476Z,0
2017-02-20T05:30:34.550Z,0
2017-02-20T05:31:43.548Z,0
2017-02-20T05:32:52.537Z,0
2017-02-20T05:34:01.533Z,0
2017-02-20T05:35:10.507Z,0
2017-02-20T05:36:19.489Z,0
2017-02-20T05:37:28.475Z,0
2017-02-20T05:38:37.560Z,0
2017-02-20T05:39:46.562Z,0
2017-02-20T05:40:55.538Z,0
2017-02-20T05:42:04.531Z,0
2017-02-20T05:43:13.511Z,0
2017-02-20T05:44:22.508Z,0
2017-02-20T05:45:31.481Z,0
2017-02-20T05:46:40.562Z,0
2017-02-20T05:47:49.649Z,0
2017-02-20T05:48:58.803Z,0
2017-02-20T05:50:07.787Z,0
2017-02-20T05:51:16.875Z,0
2017-02-20T05:52:25.873Z,0
2017-02-20T05:53:34.951Z,0
2017-02-20T05:54:44.355Z,0
2017-02-20T05:55:53.765Z,0
2017-02-20T05:57:02.748Z,0
2017-02-20T05:58:11.730Z,0
2017-02-20T05:59:21.125Z,0
2017-02-20T06:00:30.123Z,0
2017-02-20T06:01:39.127Z,0
2017-02-20T06:02:48.121Z,0
2017-02-20T06:03:57.185Z,0
2017-02-20T06:05:06.587Z,0
2017-02-20T06:06:15.579Z,0
2017-02-20T06:07:24.568Z,0
2017-02-20T06:08:33.557Z,0
2017-02-20T06:09:42.638Z,0
2017-02-20T06:10:51.642Z,0
2017-02-20T06:12:00.630Z,0
2017-02-20T06:13:09.620Z,0
2017-02-20T06:14:18.651Z,0
2017-02-20T06:15:28.051Z,0
2017-02-20T06:16:37.061Z,0
2017-02-20T06:17:46.149Z,0
2017-02-20T06:18:55.233Z,0
2017-02-20T06:20:04.267Z,0
2017-02-20T06:21:13.655Z,0
2017-02-20T06:22:22.642Z,0
2017-02-20T06:23:31.660Z,0
2017-02-20T06:24:40.675Z,0
2017-02-20T06:25:49.678Z,5
2017-02-20T06:26:58.677Z,0
2017-02-20T06:28:08.065Z,0
2017-02-20T06:29:17.051Z,0
2017-02-20T06:30:26.034Z,5
2017-02-20T06:31:35.023Z,5
2017-02-20T06:32:44.026Z,5
2017-02-20T06:33:53.452Z,5
2017-02-20T06:35:02.535Z,5
2017-02-20T06:36:11.526Z,5
2017-02-20T06:37:20.507Z,5
2017-02-20T06:38:29.531Z,5
2017-02-20T06:39:38.523Z,5
2017-02-20T06:40:47.513Z,5
2017-02-20T06:41:56.519Z,5
2017-02-20T06:43:05.503Z,5
2017-02-20T06:44:14.901Z,10
2017-02-20T06:45:23.978Z,10
2017-02-20T06:46:33.001Z,10
2017-02-20T06:47:41.980Z,10
2017-02-20T06:48:50.970Z,5
2017-02-20T06:49:59.979Z,10
2017-02-20T06:51:08.992Z,5
2017-02-20T06:52:18.088Z,5
2017-02-20T06:53:27.172Z,10
2017-02-20T06:54:36.173Z,10
2017-02-20T06:55:54.772Z,10
2017-02-20T06:57:17.778Z,15
2017-02-20T06:58:38.263Z,15
2017-02-20T06:59:48.481Z,15
2017-02-20T07:00:57.472Z,10
2017-02-20T07:02:06.576Z,10
2017-02-20T07:03:15.965Z,10
2017-02-20T07:04:24.963Z,10
2017-02-20T07:05:33.953Z,15
2017-02-20T07:06:42.934Z,15
2017-02-20T07:07:51.939Z,20
2017-02-20T07:09:01.349Z,15
2017-02-20T07:10:10.744Z,20
2017-02-20T07:11:19.741Z,20
2017-02-20T07:12:28.743Z,25
2017-02-20T07:13:37.728Z,25
2017-02-20T07:14:46.724Z,20
2017-02-20T07:15:55.700Z,20
2017-02-20T07:17:04.681Z,20
2017-02-20T07:18:13.664Z,20
2017-02-20T07:19:22.650Z,20
2017-02-20T07:20:31.627Z,20
2017-02-20T07:21:40.603Z,20
2017-02-20T07:22:49.584Z,25
2017-02-20T07:23:58.569Z,20
2017-02-20T07:25:07.550Z,20
2017-02-20T07:26:16.963Z,20
2017-02-20T07:27:26.375Z,30
2017-02-20T07:28:35.383Z,30
2017-02-20T07:29:44.377Z,30
2017-02-20T07:30:53.364Z,30
2017-02-20T07:32:02.450Z,25
2017-02-20T07:33:11.431Z,25
2017-02-20T07:34:20.435Z,30
2017-02-20T07:35:29.422Z,25
2017-02-20T07:36:38.424Z,25
2017-02-20T07:37:47.419Z,20
2017-02-20T07:38:56.410Z,20
2017-02-20T07:40:05.427Z,20
2017-02-20T07:41:14.414Z,20
2017-02-20T07:42:23.805Z,20
2017-02-20T07:43:32.966Z,25
2017-02-20T07:44:41.956Z,25
2017-02-20T07:45:50.948Z,20
2017-02-20T07:46:59.926Z,25
2017-02-20T07:48:09.005Z,25
2017-02-20T07:49:18.193Z,25
2017-02-20T07:50:27.293Z,25
2017-02-20T07:51:36.677Z,30
2017-02-20T07:52:45.746Z,25
2017-02-20T07:53:54.756Z,30
2017-02-20T07:55:03.736Z,30
2017-02-20T07:56:12.724Z,30
2017-02-20T07:57:21.731Z,30
2017-02-20T07:58:30.734Z,35
2017-02-20T07:59:39.753Z,40
2017-02-20T08:00:48.743Z,40
2017-02-20T08:01:57.769Z,40
2017-02-20T08:03:06.867Z,45
2017-02-20T08:04:15.874Z,45
2017-02-20T08:05:24.991Z,40
2017-02-20T08:06:33.967Z,45
2017-02-20T08:07:42.957Z,50
2017-02-20T08:08:51.949Z,50
2017-02-20T08:10:00.937Z,50
2017-02-20T08:11:10.328Z,45
2017-02-20T08:12:19.317Z,50
2017-02-20T08:13:28.314Z,50
2017-02-20T08:14:37.296Z,50
2017-02-20T08:15:46.270Z,55
2017-02-20T08:16:55.668Z,55
2017-02-20T08:18:04.647Z,55
2017-02-20T08:19:13.651Z,55
2017-02-20T08:20:22.642Z,50
2017-02-20T08:21:31.618Z,55
2017-02-20T08:22:40.618Z,55
2017-02-20T08:23:49.597Z,55
2017-02-20T08:24:58.599Z,55
2017-02-20T08:26:07.581Z,55
2017-02-20T08:27:16.675Z,55
2017-02-20T08:28:26.062Z,60
2017-02-20T08:29:35.077Z,60
2017-02-20T08:30:44.464Z,75
2017-02-20T08:31:53.453Z,75
2017-02-20T08:33:02.450Z,90
2017-02-20T08:34:11.442Z,95
2017-02-20T08:35:20.442Z,85
2017-02-20T08:36:29.455Z,85
2017-02-20T08:37:38.453Z,80
2017-02-20T08:38:47.540Z,75
2017-02-20T08:39:56.523Z,70
2017-02-20T08:41:05.504Z,70
2017-02-20T08:42:14.482Z,70
2017-02-20T08:43:23.568Z,65
2017-02-20T08:44:32.588Z,65
2017-02-20T08:45:41.573Z,65
2017-02-20T08:46:50.655Z,60
2017-02-20T08:48:00.154Z,50
2017-02-20T08:49:09.161Z,45
2017-02-20T08:50:18.162Z,40
2017-02-20T08:51:27.158Z,35
2017-02-20T08:52:36.154Z,40
2017-02-20T08:53:45.172Z,40
2017-02-20T08:54:54.156Z,40
2017-02-20T08:56:03.139Z,40
2017-02-20T08:57:12.132Z,45
2017-02-20T08:58:21.128Z,45
2017-02-20T08:59:30.147Z,50
2017-02-20T09:00:39.136Z,50
2017-02-20T09:01:48.124Z,55
2017-02-20T09:02:57.116Z,65
2017-02-20T09:04:06.936Z,70
2017-02-20T09:05:15.930Z,80
2017-02-20T09:06:24.944Z,85
2017-02-20T09:07:33.963Z,85
2017-02-20T09:08:43.327Z,85
2017-02-20T09:09:53.371Z,80
2017-02-20T09:11:02.366Z,85
2017-02-20T09:12:11.613Z,85
2017-02-20T09:13:21.020Z,90
2017-02-20T09:14:31.057Z,95
2017-02-20T09:15:40.622Z,100
2017-02-20T09:16:49.733Z,95
2017-02-20T09:17:58.831Z,90
2017-02-20T09:19:08.176Z,90
2017-02-20T09:20:17.239Z,95
2017-02-20T09:21:26.465Z,95
2017-02-20T09:22:35.530Z,90
2017-02-20T09:23:44.539Z,90
2017-02-20T09:24:53.707Z,85
2017-02-20T09:26:02.693Z,80
2017-02-20T09:27:11.689Z,85
2017-02-20T09:28:20.683Z,90
2017-02-20T09:29:30.076Z,85
2017-02-20T09:30:39.498Z,80
2017-02-20T09:31:48.485Z,80
2017-02-20T09:32:58.004Z,85
2017-02-20T09:34:07.539Z,90
2017-02-20T09:35:17.556Z,80
2017-02-20T09:36:27.277Z,85
2017-02-20T09:37:37.550Z,85
2017-02-20T09:38:46.633Z,85
2017-02-20T09:39:55.710Z,85
2017-02-20T09:41:04.710Z,90
2017-02-20T09:42:13.716Z,90
2017-02-20T09:43:22.712Z,90
2017-02-20T09:44:31.951Z,90
2017-02-20T09:45:40.954Z,90
2017-02-20T09:46:50.707Z,90
2017-02-20T09:48:00.313Z,90
2017-02-20T09:49:10.060Z,85
2017-02-20T09:50:19.376Z,85
2017-02-20T09:51:29.488Z,80
2017-02-20T09:52:38.473Z,85
2017-02-20T09:53:47.717Z,85
2017-02-20T09:54:56.709Z,80
2017-02-20T09:56:05.693Z,80
2017-02-20T09:57:14.688Z,85
2017-02-20T09:58:24.742Z,85
2017-02-20T09:59:33.739Z,90
2017-02-20T10:00:42.743Z,90
2017-02-20T10:01:51.727Z,90
2017-02-20T10:03:00.726Z,90
2017-02-20T10:04:09.801Z,95
2017-02-20T10:05:19.447Z,95
2017-02-20T10:06:28.453Z,90
2017-02-20T10:07:37.999Z,90
2017-02-20T10:08:48.023Z,90
2017-02-20T10:09:57.394Z,85
2017-02-20T10:11:06.783Z,75
2017-02-20T10:12:16.142Z,75
2017-02-20T10:13:25.469Z,70
2017-02-20T10:14:34.477Z,70
2017-02-20T10:15:43.554Z,85
2017-02-20T10:16:52.572Z,85
2017-02-20T10:18:02.249Z,80
2017-02-20T10:19:11.640Z,75
2017-02-20T10:20:20.644Z,70
2017-02-20T10:21:29.645Z,70
2017-02-20T10:22:38.621Z,75
2017-02-20T10:23:47.655Z,90
2017-02-20T10:24:56.652Z,100
2017-02-20T10:26:05.652Z,100
2017-02-20T10:27:14.728Z,100
2017-02-20T10:28:23.705Z,95
2017-02-20T10:29:32.898Z,85
2017-02-20T10:30:41.974Z,100
2017-02-20T10:31:51.454Z,120
2017-02-20T10:33:00.446Z,125
2017-02-20T10:34:09.446Z,125
2017-02-20T10:35:18.788Z,120
2017-02-20T10:36:28.475Z,115
2017-02-20T10:37:37.632Z,105
2017-02-20T10:38:46.623Z,95
2017-02-20T10:39:55.894Z,95
2017-02-20T10:41:06.324Z,95
2017-02-20T10:42:15.402Z,95
2017-02-20T10:43:25.148Z,90
2017-02-20T10:44:34.158Z,95
2017-02-20T10:45:43.145Z,100
2017-02-20T10:46:52.136Z,95
2017-02-20T10:48:01.224Z,95
2017-02-20T10:49:10.253Z,100
2017-02-20T10:50:19.254Z,105
2017-02-20T10:51:28.246Z,90
2017-02-20T10:52:37.842Z,90
2017-02-20T10:53:46.849Z,90
2017-02-20T10:54:55.870Z,90
2017-02-20T10:56:04.905Z,95
2017-02-20T10:57:13.903Z,110
2017-02-20T10:58:23.968Z,120
2017-02-20T10:59:33.653Z,105
2017-02-20T11:00:43.241Z,95
2017-02-20T11:01:52.349Z,95
2017-02-20T11:03:02.307Z,95
2017-02-20T11:04:11.314Z,95
2017-02-20T11:05:20.305Z,95
2017-02-20T11:06:29.295Z,100
2017-02-20T11:07:38.306Z,120
2017-02-20T11:08:47.288Z,110
2017-02-20T11:09:57.309Z,105
2017-02-20T11:11:07.159Z,80
2017-02-20T11:12:16.241Z,90
2017-02-20T11:13:25.340Z,100
2017-02-20T11:14:34.397Z,115
2017-02-20T11:15:43.395Z,115
2017-02-20T11:16:53.300Z,120
2017-02-20T11:18:02.375Z,140
2017-02-20T11:19:11.383Z,130
2017-02-20T11:20:20.361Z,150
2017-02-20T11:21:29.425Z,130
2017-02-20T11:22:38.667Z,130
2017-02-20T11:23:47.665Z,135
2017-02-20T11:24:57.196Z,145
2017-02-20T11:26:06.563Z,140
2017-02-20T11:27:15.920Z,125
2017-02-20T11:28:25.273Z,120
2017-02-20T11:29:34.867Z,105
2017-02-20T11:30:43.902Z,95
2017-02-20T11:31:52.900Z,100
2017-02-20T11:33:01.884Z,100
2017-02-20T11:34:10.881Z,100
2017-02-20T11:35:19.864Z,90
2017-02-20T11:36:29.422Z,95
2017-02-20T11:37:39.026Z,100
2017-02-20T11:38:48.006Z,100
2017-02-20T11:39:57.026Z,100
2017-02-20T11:41:06.047Z,90
2017-02-20T11:42:16.068Z,95
2017-02-20T11:43:25.611Z,95
2017-02-20T11:44:35.229Z,95
2017-02-20T11:45:44.249Z,95
2017-02-20T11:46:53.511Z,95
2017-02-20T11:48:02.499Z,85
2017-02-20T11:49:11.592Z,90
2017-02-20T11:50:20.586Z,85
2017-02-20T11:51:29.575Z,85
2017-02-20T11:52:38.568Z,80
2017-02-20T11:53:47.571Z,70
2017-02-20T11:54:56.556Z,70
2017-02-20T11:56:05.539Z,70
2017-02-20T11:57:14.517Z,75
2017-02-20T11:58:23.943Z,80
2017-02-20T11:59:33.421Z,85
2017-02-20T12:00:42.431Z,80
2017-02-20T12:01:51.514Z,85
2017-02-20T12:03:00.495Z,80
2017-02-20T12:04:09.499Z,75
2017-02-20T12:05:18.503Z,85
2017-02-20T12:06:27.483Z,90
2017-02-20T12:07:36.483Z,95
2017-02-20T12:08:45.492Z,95
2017-02-20T12:09:54.485Z,95
2017-02-20T12:11:03.468Z,110
2017-02-20T12:12:12.557Z,110
2017-02-20T12:13:21.649Z,110
2017-02-20T12:14:30.645Z,100
2017-02-20T12:15:39.644Z,90
2017-02-20T12:16:48.625Z,85
2017-02-20T12:17:57.614Z,85
2017-02-20T12:19:06.617Z,75
2017-02-20T12:20:15.686Z,80
2017-02-20T12:21:24.702Z,70
2017-02-20T12:22:33.786Z,70
2017-02-20T12:23:42.771Z,75
2017-02-20T12:24:51.791Z,70
2017-02-20T12:26:00.794Z,70
2017-02-20T12:27:09.802Z,65
2017-02-20T12:28:18.804Z,80
2017-02-20T12:29:28.207Z,80
2017-02-20T12:30:37.226Z,90
2017-02-20T12:31:46.306Z,95
2017-02-20T12:32:55.281Z,100
2017-02-20T12:34:04.276Z,110
2017-02-20T12:35:13.262Z,100
2017-02-20T12:36:22.267Z,115
2017-02-20T12:37:31.263Z,105
2017-02-20T12:38:40.253Z,110
2017-02-20T12:39:49.250Z,105
2017-02-20T12:40:58.239Z,95
2017-02-20T12:42:07.246Z,95
2017-02-20T12:43:16.225Z,95
2017-02-20T12:44:25.240Z,95
2017-02-20T12:45:34.247Z,85
2017-02-20T12:46:43.255Z,90
2017-02-20T12:47:52.243Z,90
2017-02-20T12:49:01.314Z,85
2017-02-20T12:50:10.328Z,80
2017-02-20T12:51:19.302Z,85
2017-02-20T12:52:28.301Z,90
2017-02-20T12:53:37.281Z,85
2017-02-20T12:54:46.280Z,95
2017-02-20T12:55:55.379Z,75
2017-02-20T12:57:04.368Z,75
2017-02-20T12:58:13.356Z,80
2017-02-20T12:59:22.338Z,85
2017-02-20T13:00:31.506Z,95
2017-02-20T13:01:40.508Z,95
2017-02-20T13:02:49.494Z,95
2017-02-20T13:03:58.493Z,100
2017-02-20T13:05:07.485Z,75
2017-02-20T13:06:16.469Z,90
2017-02-20T13:07:25.476Z,100
2017-02-20T13:08:34.896Z,85
2017-02-20T13:09:43.984Z,95
2017-02-20T13:10:52.982Z,85
2017-02-20T13:12:01.971Z,85
2017-02-20T13:13:10.953Z,95
2017-02-20T13:14:19.969Z,95
2017-02-20T13:15:28.978Z,80
2017-02-20T13:16:38.457Z,70
2017-02-20T13:17:47.454Z,90
2017-02-20T13:18:56.452Z,95
2017-02-20T13:20:05.433Z,55
2017-02-20T13:21:14.511Z,70
2017-02-20T13:22:23.517Z,85
2017-02-20T13:23:32.540Z,45
2017-02-20T13:24:41.539Z,40
2017-02-20T13:25:50.538Z,65
2017-02-20T13:26:59.551Z,85
2017-02-20T13:28:08.944Z,70
2017-02-20T13:29:17.952Z,55
2017-02-20T13:30:27.018Z,65
2017-02-20T13:31:36.024Z,55
2017-02-20T13:32:45.036Z,50
2017-02-20T13:33:54.125Z,55
2017-02-20T13:35:03.129Z,60
2017-02-20T13:36:12.111Z,50
2017-02-20T13:37:21.111Z,55
2017-02-20T13:38:30.108Z,50
2017-02-20T13:39:39.089Z,60
2017-02-20T13:40:48.161Z,45
2017-02-20T13:41:57.164Z,50
2017-02-20T13:43:06.147Z,50
2017-02-20T13:44:15.135Z,50
2017-02-20T13:45:24.140Z,70
2017-02-20T13:46:33.216Z,70
2017-02-20T13:47:42.197Z,60
2017-02-20T13:48:51.597Z,50
2017-02-20T13:50:00.611Z,55
2017-02-20T13:51:09.680Z,60
2017-02-20T13:52:18.667Z,50
2017-02-20T13:53:27.668Z,35
2017-02-20T13:54:36.662Z,30
2017-02-20T13:55:47.614Z,25
2017-02-20T13:56:59.523Z,35
2017-02-20T13:58:08.827Z,60
2017-02-20T13:59:17.826Z,60
2017-02-20T14:00:26.811Z,50
2017-02-20T14:01:35.962Z,35
2017-02-20T14:02:44.968Z,25
2017-02-20T14:03:54.057Z,25
2017-02-20T14:05:03.266Z,25
2017-02-20T14:06:12.338Z,20
2017-02-20T14:07:21.764Z,20
2017-02-20T14:08:30.863Z,20
2017-02-20T14:09:39.858Z,30
2017-02-20T14:10:49.013Z,25
2017-02-20T14:11:58.102Z,25
2017-02-20T14:13:07.112Z,25
2017-02-20T14:14:16.189Z,20
2017-02-20T14:15:25.258Z,25
2017-02-20T14:16:34.294Z,20
2017-02-20T14:17:43.271Z,20
2017-02-20T14:18:52.279Z,20
2017-02-20T14:20:01.925Z,20
2017-02-20T14:21:11.171Z,15
2017-02-20T14:22:20.397Z,15
2017-02-20T14:23:29.460Z,15
2017-02-20T14:24:38.455Z,15
2017-02-20T14:25:47.451Z,15
2017-02-20T14:26:56.432Z,15
2017-02-20T14:28:05.521Z,15
2017-02-20T14:29:14.513Z,15
2017-02-20T14:30:23.588Z,20
2017-02-20T14:31:32.564Z,20
2017-02-20T14:32:41.546Z,25
2017-02-20T14:33:50.561Z,20
2017-02-20T14:35:00.024Z,25
2017-02-20T14:36:09.880Z,15
2017-02-20T14:37:20.551Z,15
2017-02-20T14:38:29.550Z,15
2017-02-20T14:39:38.826Z,15
2017-02-20T14:40:49.092Z,15
2017-02-20T14:41:59.184Z,15
2017-02-20T14:43:08.910Z,20
2017-02-20T14:44:18.891Z,20
2017-02-20T14:45:28.925Z,20
2017-02-20T14:46:38.582Z,20
2017-02-20T14:47:47.648Z,15
2017-02-20T14:48:56.628Z,15
2017-02-20T14:50:05.609Z,20
2017-02-20T14:51:14.601Z,20
2017-02-20T14:52:24.087Z,15
2017-02-20T14:53:33.490Z,15
2017-02-20T14:54:42.491Z,15
2017-02-20T14:55:51.485Z,10
2017-02-20T14:57:00.468Z,15
2017-02-20T14:58:09.465Z,10
2017-02-20T14:59:18.450Z,10
2017-02-20T15:00:27.521Z,10
2017-02-20T15:01:36.512Z,10
2017-02-20T15:02:45.507Z,10
2017-02-20T15:03:54.505Z,10
2017-02-20T15:05:03.534Z,10
2017-02-20T15:06:12.529Z,10
2017-02-20T15:07:21.603Z,10
2017-02-20T15:08:30.586Z,10
2017-02-20T15:09:39.607Z,10
2017-02-20T15:10:48.596Z,10
2017-02-20T15:11:57.705Z,10
2017-02-20T15:13:06.781Z,10
2017-02-20T15:14:15.760Z,10
2017-02-20T15:15:24.744Z,5
2017-02-20T15:16:33.759Z,5
2017-02-20T15:17:42.749Z,5
2017-02-20T15:18:51.741Z,5
2017-02-20T15:20:00.820Z,10
2017-02-20T15:21:09.839Z,5
2017-02-20T15:22:18.817Z,10
2017-02-20T15:23:28.305Z,5
2017-02-20T15:24:37.392Z,10
2017-02-20T15:25:46.379Z,5
2017-02-20T15:26:55.358Z,5
2017-02-20T15:28:04.343Z,5
2017-02-20T15:29:13.328Z,5
2017-02-20T15:30:22.313Z,5
2017-02-20T15:31:31.308Z,5
2017-02-20T15:32:40.294Z,5
2017-02-20T15:33:49.276Z,5
2017-02-20T15:34:58.364Z,5
2017-02-20T15:36:07.438Z,5
2017-02-20T15:37:16.447Z,5
2017-02-20T15:38:25.438Z,5
2017-02-20T15:39:34.752Z,5
2017-02-20T15:40:44.474Z,5
2017-02-20T15:41:53.457Z,0
2017-02-20T15:43:02.465Z,0
2017-02-20T15:44:11.456Z,0
2017-02-20T15:45:20.520Z,0
2017-02-20T15:46:29.535Z,0
2017-02-20T15:47:38.626Z,0
2017-02-20T15:48:47.650Z,0
2017-02-20T15:49:56.639Z,0
2017-02-20T15:51:05.655Z,0
2017-02-20T15:52:14.671Z,0
2017-02-20T15:53:24.003Z,0
2017-02-20T15:54:33.480Z,0
2017-02-20T15:55:42.468Z,0
2017-02-20T15:56:52.235Z,0
2017-02-20T15:58:01.224Z,0
2017-02-20T15:59:10.858Z,0
2017-02-20T16:00:19.922Z,0
2017-02-20T16:01:28.915Z,0
2017-02-20T16:02:39.728Z,0
2017-02-20T16:03:48.719Z,0
2017-02-20T16:04:57.864Z,0
2017-02-20T16:06:06.978Z,0
2017-02-20T16:07:15.987Z,0
2017-02-20T16:08:24.999Z,0
2017-02-20T16:09:34.000Z,0
2017-02-20T16:10:43.028Z,0
2017-02-20T16:11:52.011Z,0
2017-02-20T16:13:00.985Z,0
2017-02-20T16:14:09.968Z,0
2017-02-20T16:15:19.588Z,0
2017-02-20T16:16:28.686Z,0
2017-02-20T16:17:37.691Z,0
2017-02-20T16:18:46.762Z,0
2017-02-20T16:19:56.043Z,0
2017-02-20T16:21:05.445Z,0
2017-02-20T16:22:14.439Z,0
2017-02-20T16:23:23.424Z,0
2017-02-20T16:24:32.757Z,0
2017-02-20T16:25:42.274Z,0
2017-02-20T16:26:51.265Z,0
2017-02-20T16:28:01.421Z,0
2017-02-20T16:29:11.154Z,0
2017-02-20T16:30:20.706Z,0
2017-02-20T16:31:29.702Z,0
2017-02-20T16:32:39.049Z,0
2017-02-20T16:33:48.733Z,0
2017-02-20T16:34:57.720Z,0
2017-02-20T16:36:06.706Z,0
2017-02-20T16:37:15.745Z,0
2017-02-20T16:38:26.088Z,0
2017-02-20T16:39:35.790Z,0
2017-02-20T16:40:45.111Z,0